Terminal Aerodrome Forecast
Issued by NWS

Home | Current Version | Previous Version | Text Only | Print | Product List | Glossary On
Versions: 1 2 3 4 5 6 7 8 9 10 11 12 13 14
874
FTUS44 KJAN 230539
TAFGTR
TAF
KGTR 230539Z 2306/2406 VRB03KT P6SM SKC
     FM231700 03005KT P6SM SCT040 BKN060=

USA.gov is the U.S. government's official web portal to all federal, state and local government web resources and services.